createdAt,value
2018-12-29T00:00:49.731Z,5.20
2018-12-29T00:03:18.411Z,5.20
2018-12-29T00:05:46.850Z,5.20
2018-12-29T00:08:15.267Z,5.30
2018-12-29T00:10:43.831Z,5.30
2018-12-29T00:13:12.232Z,5.30
2018-12-29T00:15:40.713Z,5.30
2018-12-29T00:18:09.385Z,5.40
2018-12-29T00:20:37.806Z,5.40
2018-12-29T00:23:06.554Z,5.40
2018-12-29T00:25:35.001Z,5.40
2018-12-29T00:28:03.710Z,5.40
2018-12-29T00:30:32.158Z,5.40
2018-12-29T00:33:00.563Z,5.30
2018-12-29T00:35:29.360Z,5.30
2018-12-29T00:37:58.043Z,5.30
2018-12-29T00:40:26.833Z,5.30
2018-12-29T00:42:55.523Z,5.30
2018-12-29T00:45:24.023Z,5.30
2018-12-29T00:47:52.698Z,5.30
2018-12-29T00:50:21.137Z,5.30
2018-12-29T00:52:49.853Z,5.30
2018-12-29T00:55:18.650Z,5.30
2018-12-29T00:57:47.329Z,5.30
2018-12-29T01:00:16.134Z,5.30
2018-12-29T01:02:44.795Z,5.30
2018-12-29T01:05:13.596Z,5.30
2018-12-29T01:07:42.008Z,5.40
2018-12-29T01:10:10.443Z,5.40
2018-12-29T01:12:39.134Z,5.40
2018-12-29T01:15:10.024Z,5.40
2018-12-29T01:17:38.045Z,5.40
2018-12-29T01:20:06.940Z,5.30
2018-12-29T01:22:35.340Z,5.30
2018-12-29T01:25:03.815Z,5.30
2018-12-29T01:27:32.591Z,5.30
2018-12-29T01:30:01.019Z,5.30
2018-12-29T01:32:29.839Z,5.30
2018-12-29T01:34:58.248Z,5.30
2018-12-29T01:37:26.999Z,5.40
2018-12-29T01:39:55.406Z,5.40
2018-12-29T01:42:23.842Z,5.40
2018-12-29T01:44:52.543Z,5.40
2018-12-29T01:47:20.978Z,5.40
2018-12-29T01:49:49.375Z,5.40
2018-12-29T01:52:17.820Z,5.40
2018-12-29T01:54:46.576Z,5.40
2018-12-29T01:57:14.981Z,5.40
2018-12-29T01:59:43.414Z,5.40
2018-12-29T02:02:12.134Z,5.30
2018-12-29T02:04:40.534Z,5.30
2018-12-29T02:07:08.986Z,5.30
2018-12-29T02:09:37.408Z,5.30
2018-12-29T02:12:06.467Z,5.30
2018-12-29T02:14:34.862Z,5.30
2018-12-29T02:17:03.819Z,5.30
2018-12-29T02:19:32.826Z,5.30
2018-12-29T02:22:01.322Z,5.30
2018-12-29T02:24:30.094Z,5.30
2018-12-29T02:26:58.494Z,5.30
2018-12-29T02:29:27.242Z,5.30
2018-12-29T02:31:55.937Z,5.40
2018-12-29T02:34:24.570Z,5.40
2018-12-29T02:36:52.988Z,5.40
2018-12-29T02:39:21.430Z,5.40
2018-12-29T02:41:49.828Z,5.40
2018-12-29T02:44:18.274Z,5.40
2018-12-29T02:46:47.007Z,5.50
2018-12-29T02:49:15.775Z,5.50
2018-12-29T02:51:44.193Z,5.50
2018-12-29T02:54:12.680Z,5.40
2018-12-29T02:56:41.097Z,5.40
2018-12-29T02:59:09.624Z,5.40
2018-12-29T03:01:38.315Z,5.40
2018-12-29T03:04:06.761Z,5.30
2018-12-29T03:06:35.162Z,5.30
2018-12-29T03:09:04.868Z,5.30
2018-12-29T03:11:33.275Z,5.30
2018-12-29T03:14:02.038Z,5.30
2018-12-29T03:16:30.447Z,5.30
2018-12-29T03:18:58.894Z,5.40
2018-12-29T03:21:27.586Z,5.40
2018-12-29T03:23:55.997Z,5.40
2018-12-29T03:26:24.752Z,5.40
2018-12-29T03:28:53.197Z,5.50
2018-12-29T03:31:21.619Z,5.40
2018-12-29T03:33:50.395Z,5.40
2018-12-29T03:36:18.814Z,5.40
2018-12-29T03:38:47.562Z,5.40
2018-12-29T03:41:16.554Z,5.40
2018-12-29T03:43:44.994Z,5.40
2018-12-29T03:46:13.399Z,5.50
2018-12-29T03:48:42.106Z,5.40
2018-12-29T03:51:10.903Z,5.40
2018-12-29T03:53:39.696Z,5.40
2018-12-29T03:56:08.119Z,5.40
2018-12-29T03:58:36.946Z,5.40
2018-12-29T04:01:05.644Z,5.40
2018-12-29T04:03:34.082Z,5.40
2018-12-29T04:06:02.800Z,5.40
2018-12-29T04:08:31.584Z,5.40
2018-12-29T04:10:59.988Z,5.40
2018-12-29T04:13:28.644Z,5.40
2018-12-29T04:15:58.171Z,5.50
2018-12-29T04:18:26.918Z,5.50
2018-12-29T04:20:55.355Z,5.50
2018-12-29T04:23:24.103Z,5.50
2018-12-29T04:25:52.645Z,5.60
2018-12-29T04:28:21.098Z,5.50
2018-12-29T04:30:49.754Z,5.50
2018-12-29T04:33:18.293Z,5.60
2018-12-29T04:35:46.706Z,5.50
2018-12-29T04:38:15.394Z,5.50
2018-12-29T04:40:43.842Z,5.50
2018-12-29T04:43:12.382Z,5.50
2018-12-29T04:45:40.786Z,5.50
2018-12-29T04:48:09.194Z,5.50
2018-12-29T04:50:37.642Z,5.50
2018-12-29T04:53:06.401Z,5.40
2018-12-29T04:55:35.178Z,5.50
2018-12-29T04:58:03.598Z,5.40
2018-12-29T05:00:32.034Z,5.40
2018-12-29T05:03:00.438Z,5.40
2018-12-29T05:05:29.207Z,5.40
2018-12-29T05:07:57.611Z,5.40
2018-12-29T05:10:26.046Z,5.40
2018-12-29T05:12:54.448Z,5.40
2018-12-29T05:15:23.219Z,5.40
2018-12-29T05:17:51.627Z,5.40
2018-12-29T05:20:20.065Z,5.40
2018-12-29T05:22:48.791Z,5.40
2018-12-29T05:25:17.220Z,5.50
2018-12-29T05:27:45.626Z,5.50
2018-12-29T05:30:14.339Z,5.70
2018-12-29T05:32:42.750Z,5.70
2018-12-29T05:35:11.469Z,5.70
2018-12-29T05:37:39.937Z,5.80
2018-12-29T05:40:08.756Z,5.80
2018-12-29T05:42:37.538Z,5.80
2018-12-29T05:45:06.018Z,5.80
2018-12-29T05:47:34.445Z,5.80
2018-12-29T05:50:02.929Z,5.80
2018-12-29T05:52:31.671Z,5.90
2018-12-29T05:55:00.548Z,5.90
2018-12-29T05:57:29.337Z,5.80
2018-12-29T05:59:58.035Z,5.80
2018-12-29T06:02:26.809Z,5.80
2018-12-29T06:04:55.500Z,5.80
2018-12-29T06:07:24.211Z,5.70
2018-12-29T06:09:52.961Z,5.70
2018-12-29T06:12:21.701Z,5.70
2018-12-29T06:14:50.105Z,5.70
2018-12-29T06:17:18.535Z,5.70
2018-12-29T06:19:46.941Z,5.90
2018-12-29T06:22:15.385Z,5.70
2018-12-29T06:24:43.785Z,5.70
2018-12-29T06:27:12.227Z,5.70
2018-12-29T06:29:40.624Z,5.70
2018-12-29T06:32:09.390Z,5.70
2018-12-29T06:34:38.098Z,5.70
2018-12-29T06:37:07.174Z,5.70
2018-12-29T06:39:35.578Z,5.70
2018-12-29T06:42:03.982Z,5.70
2018-12-29T06:44:32.419Z,5.70
2018-12-29T06:47:01.101Z,5.70
2018-12-29T06:49:29.897Z,5.70
2018-12-29T06:51:58.567Z,5.70
2018-12-29T06:54:27.046Z,5.70
2018-12-29T06:56:55.479Z,5.70
2018-12-29T06:59:24.238Z,5.70
2018-12-29T07:01:53.219Z,5.70
2018-12-29T07:04:21.897Z,5.70
2018-12-29T07:06:50.574Z,5.70
2018-12-29T07:09:19.009Z,5.70
2018-12-29T07:11:47.751Z,5.70
2018-12-29T07:14:16.534Z,5.70
2018-12-29T07:16:45.348Z,5.70
2018-12-29T07:19:13.741Z,5.70
2018-12-29T07:21:42.146Z,5.80
2018-12-29T07:24:10.880Z,5.80
2018-12-29T07:26:39.292Z,5.80
2018-12-29T07:29:07.732Z,5.80
2018-12-29T07:31:36.129Z,5.80
2018-12-29T07:34:04.564Z,5.80
2018-12-29T07:36:32.981Z,5.80
2018-12-29T07:39:01.483Z,5.80
2018-12-29T07:41:29.874Z,5.80
2018-12-29T07:43:58.324Z,5.70
2018-12-29T07:46:26.998Z,5.70
2018-12-29T07:48:55.807Z,5.70
2018-12-29T07:51:24.551Z,5.70
2018-12-29T07:53:52.983Z,5.70
2018-12-29T07:56:21.389Z,5.80
2018-12-29T07:58:50.203Z,5.80
2018-12-29T08:01:18.613Z,5.80
2018-12-29T08:03:47.361Z,5.70
2018-12-29T08:06:16.160Z,5.70
2018-12-29T08:08:44.610Z,5.70
2018-12-29T08:11:13.334Z,5.70
2018-12-29T08:13:41.724Z,5.80
2018-12-29T08:16:10.159Z,5.80
2018-12-29T08:18:38.866Z,5.80
2018-12-29T08:21:07.308Z,5.80
2018-12-29T08:23:35.728Z,5.90
2018-12-29T08:26:04.522Z,5.90
2018-12-29T08:28:33.310Z,5.80
2018-12-29T08:31:01.752Z,5.80
2018-12-29T08:33:30.406Z,5.80
2018-12-29T08:35:58.884Z,5.80
2018-12-29T08:38:27.295Z,5.80
2018-12-29T08:40:55.786Z,5.90
2018-12-29T08:43:24.192Z,5.90
2018-12-29T08:45:52.979Z,5.90
2018-12-29T08:48:21.393Z,5.90
2018-12-29T08:50:49.895Z,5.90
2018-12-29T08:53:18.306Z,5.90
2018-12-29T08:55:46.991Z,6.00
2018-12-29T08:58:15.397Z,6.00
2018-12-29T09:00:44.162Z,6.00
2018-12-29T09:03:12.860Z,6.00
2018-12-29T09:05:42.050Z,6.00
2018-12-29T09:08:10.470Z,6.10
2018-12-29T09:10:39.206Z,6.10
2018-12-29T09:13:07.618Z,6.10
2018-12-29T09:15:39.240Z,6.10
2018-12-29T09:18:06.811Z,6.10
2018-12-29T09:20:35.492Z,6.20
2018-12-29T09:23:04.273Z,6.20
2018-12-29T09:25:32.674Z,6.20
2018-12-29T09:28:01.130Z,6.20
2018-12-29T09:30:29.838Z,6.20
2018-12-29T09:32:58.244Z,6.20
2018-12-29T09:35:26.998Z,6.10
2018-12-29T09:37:55.425Z,6.20
2018-12-29T09:40:24.167Z,6.20
2018-12-29T09:42:52.608Z,6.20
2018-12-29T09:45:21.338Z,6.20
2018-12-29T09:47:49.882Z,6.20
2018-12-29T09:50:18.419Z,6.20
2018-12-29T09:52:46.822Z,6.20
2018-12-29T09:55:15.370Z,6.20
2018-12-29T09:57:43.769Z,6.20
2018-12-29T10:00:12.525Z,6.20
2018-12-29T10:02:40.971Z,6.30
2018-12-29T10:05:09.683Z,6.30
2018-12-29T10:07:38.135Z,6.30
2018-12-29T10:10:06.955Z,6.30
2018-12-29T10:12:35.730Z,6.30
2018-12-29T10:15:04.667Z,6.30
2018-12-29T10:17:33.510Z,6.40
2018-12-29T10:20:01.927Z,6.40
2018-12-29T10:22:30.369Z,6.40
2018-12-29T10:24:59.065Z,6.40
2018-12-29T10:27:27.497Z,6.40
2018-12-29T10:29:55.911Z,6.40
2018-12-29T10:32:24.609Z,6.40
2018-12-29T10:34:53.014Z,6.40
2018-12-29T10:37:21.783Z,6.40
2018-12-29T10:39:50.465Z,6.40
2018-12-29T10:42:18.909Z,6.40
2018-12-29T10:44:47.776Z,6.40
2018-12-29T10:47:16.297Z,6.40
2018-12-29T10:49:44.990Z,6.40
2018-12-29T10:52:13.483Z,6.50
2018-12-29T10:54:42.159Z,6.50
2018-12-29T10:57:10.603Z,6.60
2018-12-29T10:59:39.443Z,6.60
2018-12-29T11:02:07.876Z,6.60
2018-12-29T11:04:36.406Z,6.60
2018-12-29T11:07:05.161Z,6.70
2018-12-29T11:09:33.561Z,6.70
2018-12-29T11:12:01.971Z,6.70
2018-12-29T11:14:30.707Z,6.70
2018-12-29T11:16:59.106Z,6.70
2018-12-29T11:19:27.870Z,6.70
2018-12-29T11:21:56.284Z,6.70
2018-12-29T11:24:24.822Z,6.80
2018-12-29T11:26:53.665Z,6.80
2018-12-29T11:29:22.428Z,6.80
2018-12-29T11:31:51.099Z,6.80
2018-12-29T11:34:21.447Z,6.80
2018-12-29T11:36:49.845Z,6.80
2018-12-29T11:39:18.597Z,6.80
2018-12-29T11:41:47.282Z,6.90
2018-12-29T11:44:16.084Z,6.90
2018-12-29T11:46:44.845Z,7.00
2018-12-29T11:49:17.976Z,7.00
2018-12-29T11:51:43.448Z,7.00
2018-12-29T11:54:12.260Z,7.00
2018-12-29T11:56:40.725Z,7.10
2018-12-29T11:59:09.703Z,7.10
2018-12-29T12:01:38.122Z,7.10
2018-12-29T12:04:06.883Z,7.20
2018-12-29T12:06:35.346Z,7.10
2018-12-29T12:09:05.670Z,7.20
2018-12-29T12:11:34.389Z,7.20
2018-12-29T12:14:03.263Z,7.30
2018-12-29T12:16:31.666Z,7.20
2018-12-29T12:19:00.409Z,7.20
2018-12-29T12:21:29.093Z,7.20
2018-12-29T12:23:57.799Z,7.30
2018-12-29T12:26:26.490Z,7.30
2018-12-29T12:28:55.199Z,7.30
2018-12-29T12:31:24.471Z,7.30
2018-12-29T12:33:53.156Z,7.30
2018-12-29T12:36:21.611Z,7.30
2018-12-29T12:38:50.096Z,7.30
2018-12-29T12:41:18.906Z,7.30
2018-12-29T12:43:47.308Z,7.40
2018-12-29T12:46:16.579Z,7.40
2018-12-29T12:48:45.658Z,7.40
2018-12-29T12:51:14.454Z,7.40
2018-12-29T12:53:43.261Z,7.40
2018-12-29T12:56:11.765Z,7.40
2018-12-29T12:58:40.175Z,7.40
2018-12-29T13:01:09.400Z,7.40
2018-12-29T13:03:37.803Z,7.40
2018-12-29T13:06:06.594Z,7.40
2018-12-29T13:08:35.361Z,7.50
2018-12-29T13:11:03.808Z,7.50
2018-12-29T13:13:32.531Z,7.50
2018-12-29T13:16:01.322Z,7.40
2018-12-29T13:18:29.734Z,7.40
2018-12-29T13:20:58.472Z,7.40
2018-12-29T13:23:27.260Z,7.40
2018-12-29T13:25:55.745Z,7.40
2018-12-29T13:28:24.137Z,7.50
2018-12-29T13:30:52.562Z,7.50
2018-12-29T13:33:21.291Z,7.50
2018-12-29T13:35:50.067Z,7.50
2018-12-29T13:38:19.033Z,7.50
2018-12-29T13:40:47.470Z,7.50
2018-12-29T13:43:16.366Z,7.50
2018-12-29T13:45:45.109Z,7.50
2018-12-29T13:48:20.405Z,7.50
2018-12-29T13:50:44.242Z,7.50
2018-12-29T13:53:12.675Z,7.50
2018-12-29T13:55:41.165Z,7.50
2018-12-29T13:58:09.632Z,7.50
2018-12-29T14:00:39.085Z,7.50
2018-12-29T14:03:07.530Z,7.50
2018-12-29T14:05:35.938Z,7.60
2018-12-29T14:08:04.719Z,7.60
2018-12-29T14:10:33.409Z,7.60
2018-12-29T14:13:02.212Z,7.70
2018-12-29T14:15:31.008Z,7.70
2018-12-29T14:17:59.767Z,7.70
2018-12-29T14:20:28.574Z,7.70
2018-12-29T14:22:57.344Z,7.70
2018-12-29T14:25:25.748Z,7.70
2018-12-29T14:27:54.914Z,7.70
2018-12-29T14:30:23.646Z,7.60
2018-12-29T14:32:52.390Z,7.70
2018-12-29T14:35:20.805Z,7.70
2018-12-29T14:37:49.682Z,7.70
2018-12-29T14:40:18.734Z,7.70
2018-12-29T14:42:47.449Z,7.70
2018-12-29T14:45:16.139Z,7.70
2018-12-29T14:47:44.597Z,7.70
2018-12-29T14:50:13.085Z,7.60
2018-12-29T14:52:42.718Z,7.60
2018-12-29T14:55:11.595Z,7.50
2018-12-29T14:57:40.006Z,7.50
2018-12-29T15:00:09.059Z,7.50
2018-12-29T15:02:37.743Z,7.50
2018-12-29T15:05:06.431Z,7.50
2018-12-29T15:07:35.102Z,7.40
2018-12-29T15:10:04.237Z,7.50
2018-12-29T15:12:32.997Z,7.50
2018-12-29T15:15:01.709Z,7.50
2018-12-29T15:17:30.587Z,7.50
2018-12-29T15:19:59.670Z,7.50
2018-12-29T15:22:28.077Z,7.50
2018-12-29T15:24:56.825Z,7.50
2018-12-29T15:27:25.239Z,7.50
2018-12-29T15:29:55.649Z,7.50
2018-12-29T15:32:24.438Z,7.50
2018-12-29T15:34:52.879Z,7.60
2018-12-29T15:37:21.607Z,7.50
2018-12-29T15:39:50.057Z,7.50
2018-12-29T15:42:18.751Z,7.50
2018-12-29T15:44:47.562Z,7.50
2018-12-29T15:47:16.252Z,7.60
2018-12-29T15:49:45.067Z,7.50
2018-12-29T15:52:14.020Z,7.50
2018-12-29T15:54:42.736Z,7.50
2018-12-29T15:57:11.480Z,7.60
2018-12-29T15:59:40.308Z,7.60
2018-12-29T16:02:09.198Z,7.60
2018-12-29T16:04:37.680Z,7.60
2018-12-29T16:07:06.082Z,7.50
2018-12-29T16:09:34.894Z,7.50
2018-12-29T16:12:03.298Z,7.40
2018-12-29T16:14:35.383Z,7.50
2018-12-29T16:17:02.199Z,7.40
2018-12-29T16:19:30.978Z,7.50
2018-12-29T16:21:59.662Z,7.50
2018-12-29T16:24:28.203Z,7.50
2018-12-29T16:26:56.953Z,7.40
2018-12-29T16:29:25.830Z,7.40
2018-12-29T16:31:54.319Z,7.50
2018-12-29T16:34:23.074Z,7.50
2018-12-29T16:36:51.776Z,7.50
2018-12-29T16:39:20.225Z,7.50
2018-12-29T16:41:48.688Z,7.50
2018-12-29T16:44:17.639Z,7.50
2018-12-29T16:46:46.426Z,7.60
2018-12-29T16:49:15.090Z,7.60
2018-12-29T16:51:43.612Z,7.60
2018-12-29T16:54:12.085Z,7.70
2018-12-29T16:56:41.371Z,7.60
2018-12-29T16:59:09.777Z,7.70
2018-12-29T17:01:38.290Z,7.70
2018-12-29T17:04:06.694Z,7.70
2018-12-29T17:06:36.507Z,7.70
2018-12-29T17:09:06.627Z,7.80
2018-12-29T17:11:35.134Z,7.80
2018-12-29T17:14:03.540Z,7.80
2018-12-29T17:16:32.700Z,7.90
2018-12-29T17:19:01.586Z,7.90
2018-12-29T17:21:30.367Z,7.90
2018-12-29T17:23:58.771Z,7.90
2018-12-29T17:26:27.643Z,7.90
2018-12-29T17:28:56.331Z,7.90
2018-12-29T17:31:25.121Z,7.90
2018-12-29T17:33:53.526Z,7.90
2018-12-29T17:36:22.459Z,7.90
2018-12-29T17:38:51.274Z,7.90
2018-12-29T17:41:20.047Z,7.90
2018-12-29T17:43:48.958Z,7.80
2018-12-29T17:46:17.755Z,7.90
2018-12-29T17:48:46.241Z,7.90
2018-12-29T17:51:14.676Z,7.90
2018-12-29T17:53:47.912Z,7.90
2018-12-29T17:56:15.634Z,7.90
2018-12-29T17:58:44.343Z,8.00
2018-12-29T18:01:13.136Z,8.00
2018-12-29T18:03:41.908Z,8.00
2018-12-29T18:06:10.973Z,8.00
2018-12-29T18:08:39.594Z,8.10
2018-12-29T18:11:08.090Z,8.10
2018-12-29T18:13:36.579Z,8.10
2018-12-29T18:16:05.445Z,8.10
2018-12-29T18:18:34.237Z,8.20
2018-12-29T18:21:02.692Z,8.20
2018-12-29T18:23:31.476Z,8.20
2018-12-29T18:26:00.093Z,8.20
2018-12-29T18:28:29.360Z,8.30
2018-12-29T18:30:58.275Z,8.20
2018-12-29T18:33:27.062Z,8.30
2018-12-29T18:35:56.255Z,8.30
2018-12-29T18:38:24.763Z,8.40
2018-12-29T18:40:53.521Z,8.40
2018-12-29T18:43:22.331Z,8.40
2018-12-29T18:45:51.099Z,8.40
2018-12-29T18:48:19.544Z,8.40
2018-12-29T18:50:48.430Z,8.50
2018-12-29T18:53:17.260Z,8.60
2018-12-29T18:55:45.679Z,8.60
2018-12-29T18:58:14.243Z,8.60
2018-12-29T19:00:42.725Z,8.60
2018-12-29T19:03:12.098Z,8.70
2018-12-29T19:05:40.774Z,8.70
2018-12-29T19:08:09.462Z,8.70
2018-12-29T19:10:38.347Z,8.80
2018-12-29T19:13:07.214Z,8.80
2018-12-29T19:15:36.340Z,8.80
2018-12-29T19:18:06.245Z,8.90
2018-12-29T19:20:35.471Z,8.90
2018-12-29T19:23:04.760Z,8.90
2018-12-29T19:25:33.161Z,9.00
2018-12-29T19:28:01.979Z,9.00
2018-12-29T19:30:31.227Z,9.10
2018-12-29T19:33:00.158Z,9.10
2018-12-29T19:35:28.893Z,9.10
2018-12-29T19:37:57.436Z,9.10
2018-12-29T19:40:25.932Z,9.10
2018-12-29T19:42:54.807Z,9.10
2018-12-29T19:45:23.648Z,9.20
2018-12-29T19:47:52.842Z,9.20
2018-12-29T19:50:21.782Z,9.20
2018-12-29T19:52:50.324Z,9.30
2018-12-29T19:55:20.646Z,9.30
2018-12-29T19:57:49.418Z,9.30
2018-12-29T20:00:18.735Z,9.30
2018-12-29T20:02:47.917Z,9.30
2018-12-29T20:05:17.010Z,9.40
2018-12-29T20:07:45.699Z,9.40
2018-12-29T20:10:14.790Z,9.40
2018-12-29T20:12:43.473Z,9.30
2018-12-29T20:15:12.271Z,9.40
2018-12-29T20:17:41.049Z,9.40
2018-12-29T20:20:09.850Z,9.30
2018-12-29T20:22:38.634Z,9.30
2018-12-29T20:25:07.157Z,9.20
2018-12-29T20:27:35.581Z,9.20
2018-12-29T20:30:06.610Z,9.10
2018-12-29T20:32:35.014Z,9.10
2018-12-29T20:35:03.614Z,9.00
2018-12-29T20:37:32.368Z,8.90
2018-12-29T20:40:01.073Z,8.90
2018-12-29T20:42:30.167Z,9.00
2018-12-29T20:44:58.647Z,9.00
2018-12-29T20:47:27.419Z,8.90
2018-12-29T20:49:56.118Z,8.90
2018-12-29T20:52:24.712Z,8.80
2018-12-29T20:54:53.490Z,8.90
2018-12-29T20:57:22.375Z,8.80
2018-12-29T20:59:51.154Z,8.80
2018-12-29T21:02:19.673Z,8.80
2018-12-29T21:04:48.450Z,8.80
2018-12-29T21:07:17.202Z,8.80
2018-12-29T21:09:45.912Z,8.80
2018-12-29T21:12:14.694Z,8.80
2018-12-29T21:14:43.467Z,8.70
2018-12-29T21:17:11.909Z,8.70
2018-12-29T21:19:40.734Z,8.70
2018-12-29T21:22:09.246Z,8.70
2018-12-29T21:24:37.650Z,8.60
2018-12-29T21:27:06.409Z,8.60
2018-12-29T21:29:35.183Z,8.60
2018-12-29T21:32:03.979Z,8.50
2018-12-29T21:34:32.640Z,8.50
2018-12-29T21:37:01.679Z,8.60
2018-12-29T21:39:30.406Z,8.60
2018-12-29T21:41:58.851Z,8.60
2018-12-29T21:44:27.608Z,8.60
2018-12-29T21:46:56.145Z,8.60
2018-12-29T21:49:24.859Z,8.60
2018-12-29T21:51:53.762Z,8.70
2018-12-29T21:54:22.234Z,8.70
2018-12-29T21:56:50.670Z,8.70
2018-12-29T21:59:19.090Z,8.70
2018-12-29T22:01:47.874Z,8.70
2018-12-29T22:04:16.663Z,8.70
2018-12-29T22:06:45.215Z,8.70
2018-12-29T22:09:13.936Z,8.80
2018-12-29T22:11:42.711Z,8.80
2018-12-29T22:14:11.416Z,8.80
2018-12-29T22:16:40.203Z,8.70
2018-12-29T22:19:09.006Z,8.70
2018-12-29T22:21:37.476Z,8.70
2018-12-29T22:24:06.289Z,8.80
2018-12-29T22:26:34.752Z,8.80
2018-12-29T22:29:03.873Z,8.80
2018-12-29T22:31:32.708Z,8.80
2018-12-29T22:34:01.218Z,8.90
2018-12-29T22:36:29.706Z,8.80
2018-12-29T22:38:58.462Z,8.80
2018-12-29T22:41:27.246Z,8.90
2018-12-29T22:43:55.814Z,8.90
2018-12-29T22:46:24.294Z,8.90
2018-12-29T22:48:52.995Z,9.00
2018-12-29T22:51:21.687Z,8.90
2018-12-29T22:53:50.378Z,8.90
2018-12-29T22:56:18.841Z,8.90
2018-12-29T22:58:47.867Z,8.90
2018-12-29T23:01:16.851Z,9.00
2018-12-29T23:03:45.417Z,9.00
2018-12-29T23:06:14.203Z,9.00
2018-12-29T23:08:42.892Z,9.10
2018-12-29T23:11:11.616Z,9.10
2018-12-29T23:13:40.085Z,9.10
2018-12-29T23:16:08.619Z,9.10
2018-12-29T23:18:37.100Z,9.00
2018-12-29T23:21:05.614Z,9.00
2018-12-29T23:23:34.423Z,9.10
2018-12-29T23:26:03.188Z,9.10
2018-12-29T23:28:31.981Z,9.10
2018-12-29T23:31:00.703Z,9.10
2018-12-29T23:33:29.191Z,9.00
2018-12-29T23:35:57.665Z,9.10
2018-12-29T23:38:26.514Z,9.10
2018-12-29T23:40:55.287Z,9.10
2018-12-29T23:43:23.724Z,9.10
2018-12-29T23:45:52.216Z,9.10
2018-12-29T23:48:21.144Z,9.10
2018-12-29T23:50:49.624Z,9.20
2018-12-29T23:53:18.402Z,9.20
2018-12-29T23:55:47.283Z,9.10
2018-12-29T23:58:15.754Z,9.20
